createdAt,value
2017-05-27T00:00:15.531Z,17.50
2017-05-27T00:02:45.592Z,17.20
2017-05-27T00:05:15.614Z,18.00
2017-05-27T00:07:45.419Z,15.80
2017-05-27T00:10:15.532Z,16.10
2017-05-27T00:12:45.725Z,17.10
2017-05-27T00:15:15.959Z,16.80
2017-05-27T00:17:45.963Z,18.80
2017-05-27T00:20:16.053Z,18.30
2017-05-27T00:22:53.048Z,17.60
2017-05-27T00:25:23.414Z,17.10
2017-05-27T00:27:53.421Z,15.40
2017-05-27T00:30:29.673Z,15.00
2017-05-27T00:32:59.687Z,16.10
2017-05-27T00:35:29.898Z,16.20
2017-05-27T00:38:00.151Z,15.00
2017-05-27T00:40:31.839Z,15.00
2017-05-27T00:43:01.256Z,15.10
2017-05-27T00:45:31.688Z,14.90
2017-05-27T00:48:01.154Z,14.90
2017-05-27T00:50:31.502Z,15.40
2017-05-27T00:53:01.631Z,15.00
2017-05-27T00:55:31.794Z,16.10
2017-05-27T00:58:02.025Z,15.80
2017-05-27T01:00:32.359Z,15.90
2017-05-27T01:03:02.461Z,17.80
2017-05-27T01:05:32.809Z,17.30
2017-05-27T01:08:02.782Z,15.60
2017-05-27T01:10:31.994Z,15.60
2017-05-27T01:13:02.228Z,15.50
2017-05-27T01:15:32.394Z,16.50
2017-05-27T01:18:02.523Z,16.70
2017-05-27T01:20:32.798Z,15.80
2017-05-27T01:23:03.023Z,15.80
2017-05-27T01:25:33.385Z,15.70
2017-05-27T01:28:03.620Z,15.70
2017-05-27T01:30:33.824Z,16.80
2017-05-27T01:33:04.250Z,16.10
2017-05-27T01:35:34.460Z,16.90
2017-05-27T01:38:04.808Z,17.10
2017-05-27T01:40:35.682Z,17.10
2017-05-27T01:43:05.827Z,18.30
2017-05-27T01:45:35.854Z,18.90
2017-05-27T01:48:05.937Z,16.90
2017-05-27T01:50:36.087Z,18.30
2017-05-27T01:53:06.486Z,18.00
2017-05-27T01:55:36.688Z,18.30
2017-05-27T01:58:22.754Z,18.10
2017-05-27T02:00:53.010Z,17.30
2017-05-27T02:03:22.898Z,17.80
2017-05-27T02:05:52.979Z,18.40
2017-05-27T02:08:22.952Z,19.00
2017-05-27T02:10:53.224Z,18.90
2017-05-27T02:13:23.465Z,18.40
2017-05-27T02:15:53.826Z,19.10
2017-05-27T02:18:24.008Z,18.70
2017-05-27T02:20:54.269Z,18.70
2017-05-27T02:23:24.582Z,18.70
2017-05-27T02:25:54.837Z,18.40
2017-05-27T02:28:25.020Z,18.40
2017-05-27T02:30:55.325Z,18.20
2017-05-27T02:33:25.577Z,18.50
2017-05-27T02:35:55.386Z,19.10
2017-05-27T02:38:25.500Z,19.20
2017-05-27T02:40:56.264Z,19.20
2017-05-27T02:43:26.305Z,19.20
2017-05-27T02:45:56.508Z,19.70
2017-05-27T02:48:26.879Z,20.00
2017-05-27T02:50:57.048Z,19.60
2017-05-27T02:53:27.317Z,19.60
2017-05-27T02:55:57.655Z,21.40
2017-05-27T02:58:27.261Z,21.40
2017-05-27T03:00:57.436Z,21.70
2017-05-27T03:03:27.554Z,20.00
2017-05-27T03:05:57.989Z,20.10
2017-05-27T03:08:27.842Z,21.60
2017-05-27T03:10:57.968Z,21.00
2017-05-27T03:13:27.818Z,21.10
2017-05-27T03:15:58.191Z,21.10
2017-05-27T03:18:28.470Z,22.20
2017-05-27T03:20:58.652Z,24.00
2017-05-27T03:23:28.909Z,22.50
2017-05-27T03:25:59.179Z,23.50
2017-05-27T03:28:29.519Z,24.40
2017-05-27T03:30:59.638Z,24.30
2017-05-27T03:33:29.827Z,25.30
2017-05-27T03:35:59.801Z,25.60
2017-05-27T03:38:30.095Z,26.40
2017-05-27T03:41:01.575Z,27.00
2017-05-27T03:43:31.816Z,28.60
2017-05-27T03:46:01.948Z,29.20
2017-05-27T03:48:32.260Z,29.50
2017-05-27T03:51:02.291Z,29.90
2017-05-27T03:53:32.611Z,30.00
2017-05-27T03:56:02.865Z,30.50
2017-05-27T03:58:33.264Z,31.30
2017-05-27T04:01:03.244Z,31.50
2017-05-27T04:03:33.443Z,31.80
2017-05-27T04:06:03.618Z,33.70
2017-05-27T04:08:40.126Z,33.10
2017-05-27T04:11:10.390Z,33.60
2017-05-27T04:13:40.445Z,34.70
2017-05-27T04:16:17.738Z,34.30
2017-05-27T04:18:47.916Z,35.10
2017-05-27T04:21:17.595Z,35.10
2017-05-27T04:23:48.001Z,36.90
2017-05-27T04:26:18.128Z,37.20
2017-05-27T04:28:48.136Z,37.20
2017-05-27T04:31:18.077Z,38.10
2017-05-27T04:33:48.017Z,38.20
2017-05-27T04:36:17.278Z,38.10
2017-05-27T04:38:47.617Z,37.40
2017-05-27T04:41:19.189Z,36.70
2017-05-27T04:43:49.454Z,37.00
2017-05-27T04:46:19.778Z,37.40
2017-05-27T04:48:50.037Z,36.80
2017-05-27T04:51:20.497Z,37.90
2017-05-27T04:53:49.915Z,38.00
2017-05-27T04:56:20.242Z,37.80
2017-05-27T04:58:50.326Z,38.30
2017-05-27T05:01:20.403Z,38.80
2017-05-27T05:03:50.688Z,38.90
2017-05-27T05:06:20.265Z,38.80
2017-05-27T05:08:50.406Z,40.60
2017-05-27T05:11:20.551Z,40.10
2017-05-27T05:13:50.884Z,40.30
2017-05-27T05:16:21.031Z,41.50
2017-05-27T05:18:51.602Z,40.70
2017-05-27T05:21:21.841Z,40.40
2017-05-27T05:23:52.029Z,41.30
2017-05-27T05:26:22.156Z,41.10
2017-05-27T05:28:52.310Z,41.90
2017-05-27T05:31:22.489Z,41.30
2017-05-27T05:33:51.678Z,41.20
2017-05-27T05:36:21.791Z,41.60
2017-05-27T05:38:51.897Z,42.20
2017-05-27T05:41:22.624Z,42.00
2017-05-27T05:43:53.648Z,42.30
2017-05-27T05:46:24.041Z,43.10
2017-05-27T05:48:54.358Z,42.50
2017-05-27T05:51:23.621Z,42.60
2017-05-27T05:53:53.829Z,43.40
2017-05-27T05:56:23.765Z,43.90
2017-05-27T05:58:54.005Z,43.50
2017-05-27T06:01:24.125Z,44.20
2017-05-27T06:03:53.956Z,44.30
2017-05-27T06:06:24.302Z,44.70
2017-05-27T06:08:54.512Z,44.30
2017-05-27T06:11:24.857Z,45.40
2017-05-27T06:13:54.235Z,45.60
2017-05-27T06:16:24.214Z,45.50
2017-05-27T06:18:54.474Z,45.60
2017-05-27T06:21:24.870Z,45.60
2017-05-27T06:23:55.201Z,47.40
2017-05-27T06:26:25.247Z,47.10
2017-05-27T06:28:54.519Z,47.00
2017-05-27T06:31:24.744Z,47.70
2017-05-27T06:33:55.520Z,48.50
2017-05-27T06:36:25.808Z,47.40
2017-05-27T06:38:55.367Z,47.30
2017-05-27T06:41:26.674Z,49.60
2017-05-27T06:43:56.815Z,49.40
2017-05-27T06:46:26.055Z,49.30
2017-05-27T06:48:56.267Z,51.30
2017-05-27T06:51:26.460Z,52.90
2017-05-27T06:53:56.451Z,52.10
2017-05-27T06:56:26.549Z,54.00
2017-05-27T06:58:56.891Z,54.90
2017-05-27T07:01:26.303Z,55.50
2017-05-27T07:03:56.718Z,58.90
2017-05-27T07:06:26.071Z,58.80
2017-05-27T07:08:56.603Z,60.10
2017-05-27T07:11:26.972Z,59.00
2017-05-27T07:13:57.438Z,57.60
2017-05-27T07:16:27.588Z,58.30
2017-05-27T07:18:57.555Z,60.80
2017-05-27T07:21:27.702Z,61.20
2017-05-27T07:23:58.208Z,60.00
2017-05-27T07:26:27.603Z,59.80
2017-05-27T07:28:57.958Z,66.00
2017-05-27T07:31:27.901Z,63.90
2017-05-27T07:33:58.203Z,64.50
2017-05-27T07:36:28.596Z,64.40
2017-05-27T07:38:58.661Z,64.60
2017-05-27T07:41:30.531Z,65.80
2017-05-27T07:44:00.468Z,67.30
2017-05-27T07:46:31.365Z,65.20
2017-05-27T07:49:01.551Z,67.40
2017-05-27T07:51:31.710Z,68.50
2017-05-27T07:54:01.881Z,69.10
2017-05-27T07:56:32.055Z,69.40
2017-05-27T07:59:02.424Z,73.20
2017-05-27T08:01:32.827Z,72.80
2017-05-27T08:04:03.234Z,72.60
2017-05-27T08:06:33.215Z,72.70
2017-05-27T08:09:02.531Z,72.60
2017-05-27T08:11:32.841Z,73.50
2017-05-27T08:14:03.140Z,74.50
2017-05-27T08:16:40.570Z,74.80
2017-05-27T08:19:10.001Z,74.80
2017-05-27T08:21:40.186Z,75.10
2017-05-27T08:24:10.481Z,75.50
2017-05-27T08:26:40.748Z,76.60
2017-05-27T08:29:10.992Z,77.40
2017-05-27T08:31:41.409Z,77.70
2017-05-27T08:34:17.872Z,78.90
2017-05-27T08:36:48.139Z,78.90
2017-05-27T08:39:18.057Z,79.90
2017-05-27T08:41:49.659Z,80.10
2017-05-27T08:44:19.951Z,78.00
2017-05-27T08:46:57.396Z,79.20
2017-05-27T08:49:27.377Z,81.70
2017-05-27T08:51:57.486Z,82.20
2017-05-27T08:54:26.773Z,82.10
2017-05-27T08:56:56.645Z,81.40
2017-05-27T08:59:26.944Z,81.70
2017-05-27T09:01:56.375Z,81.60
2017-05-27T09:04:26.616Z,80.70
2017-05-27T09:06:56.759Z,82.50
2017-05-27T09:09:26.765Z,81.60
2017-05-27T09:11:56.955Z,80.90
2017-05-27T09:14:27.320Z,81.80
2017-05-27T09:16:57.463Z,81.60
2017-05-27T09:19:27.727Z,81.90
2017-05-27T09:21:57.875Z,81.50
2017-05-27T09:24:28.026Z,79.90
2017-05-27T09:26:58.267Z,80.20
2017-05-27T09:29:28.412Z,80.00
2017-05-27T09:31:58.545Z,81.00
2017-05-27T09:34:28.463Z,83.70
2017-05-27T09:36:58.607Z,81.20
2017-05-27T09:39:28.571Z,83.70
2017-05-27T09:41:59.989Z,85.90
2017-05-27T09:44:29.951Z,89.60
2017-05-27T09:47:00.147Z,89.20
2017-05-27T09:49:30.150Z,88.80
2017-05-27T09:51:59.783Z,88.80
2017-05-27T09:54:30.175Z,86.90
2017-05-27T09:57:00.061Z,86.30
2017-05-27T09:59:30.173Z,86.80
2017-05-27T10:02:00.538Z,87.60
2017-05-27T10:04:30.545Z,88.10
2017-05-27T10:07:00.090Z,88.10
2017-05-27T10:09:30.473Z,89.00
2017-05-27T10:12:00.802Z,90.00
2017-05-27T10:14:31.017Z,90.60
2017-05-27T10:17:01.186Z,90.30
2017-05-27T10:19:31.228Z,90.00
2017-05-27T10:22:01.274Z,91.00
2017-05-27T10:24:31.513Z,90.90
2017-05-27T10:27:01.691Z,92.70
2017-05-27T10:29:31.865Z,93.00
2017-05-27T10:32:01.326Z,93.00
2017-05-27T10:34:31.672Z,93.30
2017-05-27T10:37:01.234Z,93.30
2017-05-27T10:39:31.122Z,94.00
2017-05-27T10:42:02.305Z,94.60
2017-05-27T10:44:32.338Z,94.20
2017-05-27T10:47:02.416Z,94.60
2017-05-27T10:49:32.392Z,95.20
2017-05-27T10:52:01.754Z,95.10
2017-05-27T10:54:32.033Z,96.60
2017-05-27T10:57:01.970Z,96.60
2017-05-27T10:59:32.182Z,96.60
2017-05-27T11:02:02.282Z,96.80
2017-05-27T11:04:32.400Z,98.00
2017-05-27T11:07:02.349Z,98.00
2017-05-27T11:09:32.616Z,99.30
2017-05-27T11:12:02.758Z,99.70
2017-05-27T11:14:32.814Z,98.80
2017-05-27T11:17:03.164Z,99.00
2017-05-27T11:19:32.950Z,98.80
2017-05-27T11:22:03.227Z,98.60
2017-05-27T11:24:33.723Z,98.20
2017-05-27T11:27:04.056Z,99.30
2017-05-27T11:29:34.216Z,99.90
2017-05-27T11:32:04.683Z,99.90
2017-05-27T11:34:35.132Z,99.90
2017-05-27T11:37:05.234Z,99.90
2017-05-27T11:39:35.302Z,99.90
2017-05-27T11:42:05.667Z,99.90
2017-05-27T11:44:35.812Z,99.90
2017-05-27T11:47:06.090Z,99.90
2017-05-27T11:49:36.561Z,99.90
2017-05-27T11:52:06.426Z,99.90
2017-05-27T11:54:35.877Z,99.90
2017-05-27T11:57:05.940Z,99.90
2017-05-27T11:59:35.239Z,99.90
2017-05-27T12:02:05.416Z,99.90
2017-05-27T12:04:35.679Z,99.90
2017-05-27T12:07:05.182Z,99.90
2017-05-27T12:09:35.045Z,99.90
2017-05-27T12:12:05.371Z,99.90
2017-05-27T12:14:35.635Z,99.90
2017-05-27T12:17:04.946Z,99.90
2017-05-27T12:19:35.117Z,99.90
2017-05-27T12:22:05.115Z,99.90
2017-05-27T12:24:35.428Z,99.90
2017-05-27T12:27:05.832Z,99.90
2017-05-27T12:29:35.390Z,99.90
2017-05-27T12:32:05.670Z,99.90
2017-05-27T12:34:35.632Z,99.90
2017-05-27T12:37:06.025Z,99.90
2017-05-27T12:39:35.967Z,99.90
2017-05-27T12:42:07.189Z,99.90
2017-05-27T12:44:37.084Z,99.90
2017-05-27T12:47:06.848Z,99.90
2017-05-27T12:49:37.000Z,99.90
2017-05-27T12:52:07.208Z,99.90
2017-05-27T12:54:37.173Z,99.90
2017-05-27T12:57:07.128Z,99.90
2017-05-27T12:59:37.469Z,99.90
2017-05-27T13:02:07.594Z,99.90
2017-05-27T13:04:37.554Z,99.90
2017-05-27T13:07:07.567Z,99.90
2017-05-27T13:09:37.763Z,99.90
2017-05-27T13:12:06.939Z,99.90
2017-05-27T13:14:36.959Z,99.90
2017-05-27T13:17:07.076Z,99.90
2017-05-27T13:19:36.984Z,99.90
2017-05-27T13:22:07.227Z,99.90
2017-05-27T13:24:37.320Z,99.90
2017-05-27T13:27:07.727Z,99.90
2017-05-27T13:29:37.845Z,99.90
2017-05-27T13:32:08.016Z,99.90
2017-05-27T13:34:38.175Z,99.90
2017-05-27T13:37:08.212Z,99.90
2017-05-27T13:39:38.437Z,99.90
2017-05-27T13:42:09.355Z,99.90
2017-05-27T13:44:39.685Z,99.90
2017-05-27T13:47:10.031Z,98.00
2017-05-27T13:49:40.359Z,96.20
2017-05-27T13:52:10.576Z,96.00
2017-05-27T13:54:40.696Z,94.40
2017-05-27T13:57:11.034Z,93.70
2017-05-27T13:59:41.250Z,95.20
2017-05-27T14:02:11.450Z,92.10
2017-05-27T14:04:41.388Z,90.90
2017-05-27T14:07:11.594Z,90.00
2017-05-27T14:09:41.635Z,88.60
2017-05-27T14:12:12.010Z,83.00
2017-05-27T14:14:42.163Z,81.60
2017-05-27T14:17:12.479Z,78.80
2017-05-27T14:19:42.652Z,77.40
2017-05-27T14:22:12.679Z,78.00
2017-05-27T14:24:42.024Z,78.00
2017-05-27T14:27:11.994Z,78.50
2017-05-27T14:29:41.928Z,80.50
2017-05-27T14:32:12.500Z,79.80
2017-05-27T14:34:42.949Z,78.10
2017-05-27T14:37:13.295Z,75.80
2017-05-27T14:39:43.794Z,71.80
2017-05-27T14:42:14.930Z,72.10
2017-05-27T14:44:45.281Z,70.70
2017-05-27T14:47:15.361Z,71.00
2017-05-27T14:49:45.445Z,70.50
2017-05-27T14:52:15.339Z,65.20
2017-05-27T14:54:45.427Z,67.60
2017-05-27T14:57:15.723Z,68.40
2017-05-27T14:59:45.826Z,64.80
2017-05-27T15:02:16.188Z,57.10
2017-05-27T15:04:46.351Z,49.40
2017-05-27T15:07:16.747Z,47.80
2017-05-27T15:09:47.113Z,43.60
2017-05-27T15:12:17.421Z,38.70
2017-05-27T15:14:47.075Z,38.40
2017-05-27T15:17:17.211Z,34.20
2017-05-27T15:19:47.346Z,29.70
2017-05-27T15:22:17.600Z,24.40
2017-05-27T15:24:47.801Z,26.30
2017-05-27T15:27:18.086Z,25.70
2017-05-27T15:29:48.404Z,21.30
2017-05-27T15:32:18.778Z,20.20
2017-05-27T15:34:49.251Z,14.90
2017-05-27T15:37:19.449Z,17.40
2017-05-27T15:39:49.563Z,15.30
2017-05-27T15:42:19.994Z,15.30
2017-05-27T15:44:49.959Z,13.50
2017-05-27T15:47:20.094Z,13.30
2017-05-27T15:49:50.329Z,10.90
2017-05-27T15:52:20.508Z,11.30
2017-05-27T15:54:50.893Z,9.60
2017-05-27T15:57:20.432Z,9.70
2017-05-27T15:59:50.539Z,11.30
2017-05-27T16:02:20.703Z,15.10
2017-05-27T16:04:51.040Z,14.90
2017-05-27T16:07:21.383Z,14.90
2017-05-27T16:09:50.708Z,14.90
2017-05-27T16:12:20.928Z,16.30
2017-05-27T16:14:50.172Z,16.30
2017-05-27T16:17:20.217Z,17.50
2017-05-27T16:19:50.407Z,14.80
2017-05-27T16:22:20.531Z,14.60
2017-05-27T16:24:50.828Z,17.00
2017-05-27T16:27:21.137Z,17.50
2017-05-27T16:29:49.839Z,17.40
2017-05-27T16:32:20.226Z,14.70
2017-05-27T16:34:49.807Z,14.50
2017-05-27T16:37:20.036Z,15.00
2017-05-27T16:39:49.542Z,14.20
2017-05-27T16:42:21.048Z,15.70
2017-05-27T16:44:51.428Z,13.90
2017-05-27T16:47:21.428Z,12.50
2017-05-27T16:49:50.091Z,11.90
2017-05-27T16:52:20.464Z,10.80
2017-05-27T16:54:49.198Z,10.60
2017-05-27T16:57:18.468Z,9.70
2017-05-27T16:59:47.851Z,13.40
2017-05-27T17:02:17.888Z,10.20
2017-05-27T17:04:48.187Z,11.40
2017-05-27T17:07:18.444Z,9.80
2017-05-27T17:09:47.814Z,9.70
2017-05-27T17:12:18.151Z,10.40
2017-05-27T17:14:48.280Z,10.90
2017-05-27T17:17:18.721Z,12.10
2017-05-27T17:19:49.091Z,10.60
2017-05-27T17:22:19.382Z,8.10
2017-05-27T17:24:50.028Z,9.10
2017-05-27T17:27:20.590Z,11.10
2017-05-27T17:29:50.867Z,11.40
2017-05-27T17:32:21.187Z,13.40
2017-05-27T17:34:51.072Z,12.00
2017-05-27T17:37:21.120Z,15.30
2017-05-27T17:39:50.968Z,11.30
2017-05-27T17:42:22.536Z,11.30
2017-05-27T17:44:52.956Z,11.30
2017-05-27T17:47:23.064Z,11.10
2017-05-27T17:49:53.198Z,8.70
2017-05-27T17:52:24.340Z,11.20
2017-05-27T17:54:54.680Z,11.70
2017-05-27T17:57:23.436Z,11.60
2017-05-27T17:59:52.757Z,11.80
2017-05-27T18:02:22.857Z,12.90
2017-05-27T18:04:53.133Z,9.60
2017-05-27T18:07:23.318Z,9.60
2017-05-27T18:09:53.425Z,9.10
2017-05-27T18:12:23.795Z,9.80
2017-05-27T18:14:54.019Z,8.10
2017-05-27T18:17:24.002Z,8.80
2017-05-27T18:19:54.280Z,9.00
2017-05-27T18:22:24.340Z,9.50
2017-05-27T18:24:54.667Z,8.30
2017-05-27T18:27:24.647Z,9.80
2017-05-27T18:29:54.913Z,11.90
2017-05-27T18:32:28.077Z,11.30
2017-05-27T18:34:58.230Z,11.10
2017-05-27T18:37:28.518Z,10.70
2017-05-27T18:39:58.816Z,14.50
2017-05-27T18:42:30.149Z,12.60
2017-05-27T18:45:00.572Z,12.20
2017-05-27T18:47:30.839Z,12.00
2017-05-27T18:50:01.076Z,12.40
2017-05-27T18:52:30.979Z,12.00
2017-05-27T18:55:01.261Z,10.20
2017-05-27T18:57:31.427Z,10.30
2017-05-27T19:00:01.740Z,14.30
2017-05-27T19:02:31.855Z,10.70
2017-05-27T19:05:02.137Z,11.00
2017-05-27T19:07:32.439Z,12.60
2017-05-27T19:10:02.588Z,13.50
2017-05-27T19:12:32.627Z,12.70
2017-05-27T19:15:02.048Z,12.70
2017-05-27T19:17:32.040Z,12.80
2017-05-27T19:20:02.083Z,12.40
2017-05-27T19:22:31.700Z,10.80
2017-05-27T19:25:02.088Z,11.00
2017-05-27T19:27:32.113Z,12.10
2017-05-27T19:30:01.384Z,12.10
2017-05-27T19:32:31.554Z,12.20
2017-05-27T19:35:01.744Z,14.70
2017-05-27T19:37:32.132Z,14.30
2017-05-27T19:40:02.463Z,12.00
2017-05-27T19:42:33.523Z,14.00
2017-05-27T19:45:03.956Z,14.30
2017-05-27T19:47:34.208Z,14.80
2017-05-27T19:50:03.809Z,14.80
2017-05-27T19:52:34.501Z,13.70
2017-05-27T19:55:04.543Z,16.70
2017-05-27T19:57:33.782Z,16.90
2017-05-27T20:00:04.175Z,15.50
2017-05-27T20:02:34.332Z,18.80
2017-05-27T20:05:04.322Z,17.70
2017-05-27T20:07:34.615Z,20.30
2017-05-27T20:10:04.920Z,19.50
2017-05-27T20:12:34.893Z,19.50
2017-05-27T20:15:05.150Z,24.00
2017-05-27T20:17:35.551Z,24.40
2017-05-27T20:20:05.799Z,20.10
2017-05-27T20:22:35.887Z,21.30
2017-05-27T20:25:06.232Z,21.40
2017-05-27T20:27:36.417Z,23.20
2017-05-27T20:30:06.413Z,24.80
2017-05-27T20:32:35.919Z,24.50
2017-05-27T20:35:05.983Z,23.80
2017-05-27T20:37:36.142Z,21.30
2017-05-27T20:40:06.256Z,21.50
2017-05-27T20:42:37.500Z,19.30
2017-05-27T20:45:07.403Z,23.20
2017-05-27T20:47:37.507Z,22.40
2017-05-27T20:50:07.758Z,20.00
2017-05-27T20:52:38.159Z,21.90
2017-05-27T20:55:11.810Z,17.50
2017-05-27T20:57:42.103Z,19.30
2017-05-27T21:00:12.127Z,16.80
2017-05-27T21:02:42.292Z,19.00
2017-05-27T21:05:11.827Z,21.80
2017-05-27T21:07:41.842Z,17.90
2017-05-27T21:10:12.069Z,20.10
2017-05-27T21:12:42.279Z,18.00
2017-05-27T21:15:12.321Z,18.80
2017-05-27T21:17:42.597Z,19.00
2017-05-27T21:20:12.718Z,21.10
2017-05-27T21:22:41.994Z,21.10
2017-05-27T21:25:12.084Z,16.30
2017-05-27T21:27:42.180Z,12.60
2017-05-27T21:30:12.580Z,16.10
2017-05-27T21:32:42.844Z,17.30
2017-05-27T21:35:13.217Z,19.30
2017-05-27T21:37:42.961Z,17.80
2017-05-27T21:40:13.290Z,18.80
2017-05-27T21:42:44.153Z,18.80
2017-05-27T21:45:14.518Z,18.50
2017-05-27T21:47:44.670Z,17.50
2017-05-27T21:50:14.965Z,19.90
2017-05-27T21:52:45.244Z,18.90
2017-05-27T21:55:15.287Z,17.40
2017-05-27T21:57:45.662Z,16.10
2017-05-27T22:00:16.409Z,17.00
2017-05-27T22:02:46.674Z,15.90
2017-05-27T22:05:16.925Z,18.10
2017-05-27T22:07:46.988Z,16.00
2017-05-27T22:10:17.137Z,14.70
2017-05-27T22:12:46.940Z,16.20
2017-05-27T22:15:16.960Z,16.90
2017-05-27T22:17:47.202Z,16.90
2017-05-27T22:20:17.287Z,14.00
2017-05-27T22:22:47.554Z,16.40
2017-05-27T22:25:17.474Z,15.70
2017-05-27T22:27:47.457Z,15.60
2017-05-27T22:30:17.593Z,15.50
2017-05-27T22:32:47.826Z,15.20
2017-05-27T22:35:17.943Z,13.60
2017-05-27T22:37:47.980Z,15.00
2017-05-27T22:40:18.179Z,13.80
2017-05-27T22:42:48.893Z,13.60
2017-05-27T22:45:19.227Z,14.30
2017-05-27T22:47:49.529Z,12.70
2017-05-27T22:50:19.437Z,15.30
2017-05-27T22:52:49.701Z,11.30
2017-05-27T22:55:19.165Z,11.30
2017-05-27T22:57:49.506Z,13.40
2017-05-27T23:00:19.624Z,13.40
2017-05-27T23:02:49.579Z,14.20
2017-05-27T23:05:19.996Z,13.10
2017-05-27T23:07:50.101Z,15.50
2017-05-27T23:10:20.369Z,16.20
2017-05-27T23:12:50.449Z,12.10
2017-05-27T23:15:20.179Z,14.40
2017-05-27T23:17:49.479Z,14.50
2017-05-27T23:20:18.906Z,12.90
2017-05-27T23:22:47.552Z,13.00
2017-05-27T23:25:17.609Z,10.40
2017-05-27T23:27:47.790Z,11.60
2017-05-27T23:30:18.102Z,12.40
2017-05-27T23:32:49.516Z,10.50
2017-05-27T23:35:19.728Z,11.60
2017-05-27T23:37:49.936Z,10.70
2017-05-27T23:40:20.127Z,11.80
2017-05-27T23:42:51.047Z,14.30
2017-05-27T23:45:21.228Z,10.80
2017-05-27T23:47:51.491Z,11.60
2017-05-27T23:50:21.640Z,11.80
2017-05-27T23:52:51.617Z,11.00
2017-05-27T23:55:21.654Z,11.80
2017-05-27T23:57:52.105Z,12.50
